createdAt,value
2022-08-01T00:03:47.800Z,97392.16
2022-08-01T00:06:34.765Z,97391.76
2022-08-01T00:09:03.610Z,97390.73
2022-08-01T00:11:56.279Z,97389.11
2022-08-01T00:25:00.835Z,97395.13
2022-08-01T00:30:54.397Z,97394.56
2022-08-01T00:33:23.351Z,97393.23
2022-08-01T00:39:15.842Z,97396.66
2022-08-01T00:41:44.713Z,97395.39
2022-08-01T00:44:13.437Z,97392.42
2022-08-01T00:47:19.037Z,97397.37
2022-08-01T00:53:18.770Z,97390.54
2022-08-01T00:56:07.150Z,97390.96
2022-08-01T00:59:14.052Z,97392.79
2022-08-01T01:12:08.492Z,97383.00
2022-08-01T01:21:38.830Z,97377.88
2022-08-01T01:24:58.951Z,97382.60
2022-08-01T01:31:08.002Z,97382.23
2022-08-01T01:33:47.200Z,97379.16
2022-08-01T01:36:35.209Z,97379.95
2022-08-01T01:39:22.705Z,97385.36
2022-08-01T01:42:10.593Z,97382.59
2022-08-01T01:45:04.352Z,97380.41
2022-08-01T01:50:43.453Z,97379.33
2022-08-01T01:53:32.356Z,97374.17
2022-08-01T01:57:00.595Z,97375.29
2022-08-01T01:59:50.843Z,97378.63
2022-08-01T02:02:57.529Z,97381.27
2022-08-01T02:12:08.159Z,97380.40
2022-08-01T02:18:34.988Z,97377.33
2022-08-01T02:24:10.305Z,97381.86
2022-08-01T02:30:44.618Z,97379.40
2022-08-01T02:33:53.293Z,97385.36
2022-08-01T02:36:41.179Z,97384.10
2022-08-01T02:42:21.564Z,97384.76
2022-08-01T02:48:05.108Z,97384.51
2022-08-01T02:50:35.377Z,97385.67
2022-08-01T02:56:37.058Z,97384.14
2022-08-01T02:59:27.109Z,97383.20
2022-08-01T03:05:44.343Z,97385.69
2022-08-01T03:08:50.325Z,97382.49
2022-08-01T03:11:58.641Z,97387.36
2022-08-01T03:17:39.235Z,97390.30
2022-08-01T03:20:12.044Z,97388.05
2022-08-01T03:22:59.420Z,97388.92
2022-08-01T03:32:21.119Z,97386.20
2022-08-01T03:38:56.934Z,97378.62
2022-08-01T03:41:47.993Z,97376.69
2022-08-01T03:48:22.452Z,97382.63
2022-08-01T03:54:18.736Z,97379.10
2022-08-01T03:57:43.298Z,97378.65
2022-08-01T04:00:32.910Z,97376.61
2022-08-01T04:03:21.371Z,97384.45
2022-08-01T04:09:33.858Z,97382.17
2022-08-01T04:16:22.560Z,97384.27
2022-08-01T04:18:52.181Z,97383.73
2022-08-01T04:22:15.249Z,97385.67
2022-08-01T04:31:42.018Z,97397.61
2022-08-01T04:34:52.646Z,97401.58
2022-08-01T04:41:28.924Z,97405.38
2022-08-01T04:50:47.217Z,97410.66
2022-08-01T04:54:31.139Z,97411.64
2022-08-01T04:57:40.996Z,97414.70
2022-08-01T05:10:23.641Z,97413.61
2022-08-01T05:12:52.842Z,97414.01
2022-08-01T05:15:42.158Z,97411.38
2022-08-01T05:18:47.757Z,97420.38
2022-08-01T05:27:46.214Z,97425.67
2022-08-01T05:34:15.699Z,97426.14
2022-08-01T05:36:45.566Z,97429.03
2022-08-01T05:46:47.813Z,97425.69
2022-08-01T05:49:35.161Z,97425.21
2022-08-01T05:52:22.192Z,97428.83
2022-08-01T06:01:40.916Z,97435.68
2022-08-01T06:11:04.265Z,97441.72
2022-08-01T06:13:33.977Z,97436.63
2022-08-01T06:16:35.496Z,97438.19
2022-08-01T06:19:40.658Z,97440.98
2022-08-01T06:25:19.388Z,97449.23
2022-08-01T06:27:50.350Z,97450.68
2022-08-01T06:30:37.634Z,97451.30
2022-08-01T06:35:53.975Z,97454.98
2022-08-01T06:39:00.360Z,97461.23
2022-08-01T06:41:47.384Z,97464.25
2022-08-01T06:45:29.788Z,97470.48
2022-08-01T06:48:36.255Z,97465.63
2022-08-01T06:51:23.753Z,97466.85
2022-08-01T06:54:30.513Z,97471.33
2022-08-01T06:57:18.250Z,97470.60
2022-08-01T07:00:24.624Z,97470.80
2022-08-01T07:03:11.529Z,97470.42
2022-08-01T07:08:28.247Z,97469.15
2022-08-01T07:11:52.910Z,97469.78
2022-08-01T07:14:58.159Z,97471.00
2022-08-01T07:17:45.827Z,97466.15
2022-08-01T07:20:16.240Z,97466.90
2022-08-01T07:23:03.957Z,97466.75
2022-08-01T07:25:33.473Z,97463.93
2022-08-01T07:28:21.316Z,97464.57
2022-08-01T07:31:08.775Z,97468.88
2022-08-01T07:34:50.517Z,97462.56
2022-08-01T07:37:19.379Z,97459.00
2022-08-01T07:40:30.172Z,97456.33
2022-08-01T07:42:59.000Z,97457.48
2022-08-01T07:46:04.295Z,97457.94
2022-08-01T07:48:51.481Z,97452.60
2022-08-01T07:51:38.691Z,97452.36
2022-08-01T07:54:47.055Z,97451.45
2022-08-01T07:57:18.327Z,97456.92
2022-08-01T07:59:47.404Z,97454.13
2022-08-01T08:02:35.033Z,97449.84
2022-08-01T08:05:58.679Z,97450.77
2022-08-01T08:09:06.649Z,97450.85
2022-08-01T08:11:54.380Z,97453.05
2022-08-01T08:18:13.159Z,97452.27
2022-08-01T08:21:04.867Z,97450.67
2022-08-01T08:23:53.863Z,97451.23
2022-08-01T08:35:59.714Z,97453.34
2022-08-01T08:42:13.071Z,97456.63
2022-08-01T08:48:16.766Z,97458.48
2022-08-01T08:50:49.155Z,97458.67
2022-08-01T08:53:36.691Z,97454.50
2022-08-01T09:02:43.606Z,97461.20
2022-08-01T09:05:17.568Z,97458.92
2022-08-01T09:11:31.626Z,97456.63
2022-08-01T09:14:31.986Z,97461.10
2022-08-01T09:17:23.074Z,97456.50
2022-08-01T09:23:55.062Z,97461.58
2022-08-01T09:26:33.936Z,97460.58
2022-08-01T09:32:32.756Z,97460.80
2022-08-01T09:38:30.927Z,97456.83
2022-08-01T09:41:37.836Z,97448.28
2022-08-01T09:44:09.419Z,97440.19
2022-08-01T09:47:51.283Z,97439.62
2022-08-01T09:51:07.188Z,97437.54
2022-08-01T09:57:14.691Z,97429.67
2022-08-01T10:00:02.923Z,97429.11
2022-08-01T10:02:41.810Z,97429.41
2022-08-01T10:05:37.095Z,97429.88
2022-08-01T10:08:08.100Z,97427.96
2022-08-01T10:11:13.845Z,97417.83
2022-08-01T10:14:07.245Z,97429.32
2022-08-01T10:16:57.366Z,97421.77
2022-08-01T10:22:39.419Z,97414.33
2022-08-01T10:25:48.738Z,97408.85
2022-08-01T10:28:24.065Z,97411.16
2022-08-01T10:31:50.266Z,97413.02
2022-08-01T10:34:23.039Z,97412.75
2022-08-01T10:36:53.934Z,97406.31
2022-08-01T10:46:32.890Z,97397.19
2022-08-01T10:49:22.650Z,97388.20
2022-08-01T10:51:54.764Z,97383.73
2022-08-01T10:59:06.141Z,97381.71
2022-08-01T11:02:32.176Z,97380.27
2022-08-01T11:16:41.881Z,97365.80
2022-08-01T11:19:28.993Z,97359.31
2022-08-01T11:22:34.455Z,97358.67
2022-08-01T11:29:17.910Z,97350.70
2022-08-01T11:33:11.648Z,97343.96
2022-08-01T11:36:16.447Z,97345.16
2022-08-01T11:39:22.254Z,97342.04
2022-08-01T11:42:09.703Z,97346.15
2022-08-01T11:44:56.537Z,97339.64
2022-08-01T11:48:04.847Z,97333.48
2022-08-01T11:51:15.938Z,97331.73
2022-08-01T11:57:51.476Z,97331.31
2022-08-01T12:00:43.880Z,97324.36
2022-08-01T12:03:20.666Z,97322.73
2022-08-01T12:06:28.223Z,97323.05
2022-08-01T12:09:34.911Z,97324.48
2022-08-01T12:15:10.421Z,97318.44
2022-08-01T12:18:33.338Z,97316.77
2022-08-01T12:21:38.849Z,97308.42
2022-08-01T12:24:43.713Z,97312.70
2022-08-01T12:30:40.630Z,97307.81
2022-08-01T12:36:34.912Z,97315.30
2022-08-01T12:39:30.058Z,97309.89
2022-08-01T12:41:59.672Z,97305.79
2022-08-01T12:47:57.964Z,97297.27
2022-08-01T12:51:04.908Z,97292.33
2022-08-01T12:53:40.411Z,97284.57
2022-08-01T12:56:12.153Z,97276.99
2022-08-01T13:02:11.511Z,97277.96
2022-08-01T13:04:52.296Z,97277.80
2022-08-01T13:07:45.843Z,97276.02
2022-08-01T13:14:28.764Z,97267.55
2022-08-01T13:17:15.942Z,97271.48
2022-08-01T13:20:39.347Z,97268.83
2022-08-01T13:24:04.149Z,97263.97
2022-08-01T13:26:41.824Z,97259.52
2022-08-01T13:29:12.768Z,97255.46
2022-08-01T13:35:01.437Z,97251.59
2022-08-01T13:38:10.085Z,97248.85
2022-08-01T13:44:38.796Z,97246.10
2022-08-01T13:51:02.124Z,97231.91
2022-08-01T13:53:58.135Z,97230.41
2022-08-01T13:57:03.695Z,97226.66
2022-08-01T14:00:28.090Z,97226.11
2022-08-01T14:09:18.244Z,97226.45
2022-08-01T14:13:06.144Z,97225.02
2022-08-01T14:15:37.545Z,97222.09
2022-08-01T14:18:10.139Z,97221.48
2022-08-01T14:21:01.293Z,97219.45
2022-08-01T14:23:52.878Z,97216.50
2022-08-01T14:26:57.797Z,97213.98
2022-08-01T14:30:21.563Z,97209.95
2022-08-01T14:33:28.038Z,97201.67
2022-08-01T14:36:53.834Z,97195.06
2022-08-01T14:42:48.918Z,97200.30
2022-08-01T14:45:17.697Z,97197.96
2022-08-01T14:47:46.808Z,97198.70
2022-08-01T14:50:34.973Z,97195.00
2022-08-01T14:53:22.900Z,97191.71
2022-08-01T14:56:28.356Z,97189.39
2022-08-01T15:03:15.917Z,97185.75
2022-08-01T15:06:39.654Z,97181.09
2022-08-01T15:09:09.613Z,97184.83
2022-08-01T15:11:39.054Z,97190.55
2022-08-01T15:17:53.063Z,97181.41
2022-08-01T15:20:40.290Z,97182.91
2022-08-01T15:33:22.621Z,97173.39
2022-08-01T15:36:46.036Z,97177.14
2022-08-01T15:39:56.578Z,97173.00
2022-08-01T15:42:45.125Z,97166.77
2022-08-01T15:45:49.123Z,97164.17
2022-08-01T15:54:14.916Z,97163.76
2022-08-01T15:57:19.908Z,97165.83
2022-08-01T15:59:48.680Z,97164.89
2022-08-01T16:03:12.283Z,97168.39
2022-08-01T16:06:17.450Z,97167.70
2022-08-01T16:09:04.767Z,97165.11
2022-08-01T16:11:51.841Z,97161.86
2022-08-01T16:15:15.992Z,97159.10
2022-08-01T16:18:05.152Z,97150.39
2022-08-01T16:20:34.103Z,97147.92
2022-08-01T16:27:02.945Z,97144.83
2022-08-01T16:29:31.985Z,97140.17
2022-08-01T16:38:32.481Z,97142.49
2022-08-01T16:41:01.379Z,97138.23
2022-08-01T16:43:53.622Z,97134.88
2022-08-01T16:46:22.991Z,97130.55
2022-08-01T16:49:10.738Z,97131.93
2022-08-01T16:52:16.842Z,97129.96
2022-08-01T16:55:22.604Z,97131.34
2022-08-01T16:58:10.103Z,97128.72
2022-08-01T17:02:03.354Z,97127.08
2022-08-01T17:04:08.042Z,97124.81
2022-08-01T17:06:55.572Z,97123.52
2022-08-01T17:10:01.304Z,97124.02
2022-08-01T17:15:53.919Z,97127.91
2022-08-01T17:19:18.034Z,97130.52
2022-08-01T17:22:22.815Z,97128.55
2022-08-01T17:25:30.311Z,97124.50
2022-08-01T17:28:17.649Z,97122.08
2022-08-01T17:31:24.073Z,97126.63
2022-08-01T17:34:11.788Z,97134.95
2022-08-01T17:36:40.566Z,97132.23
2022-08-01T17:39:38.434Z,97132.85
2022-08-01T17:42:29.557Z,97139.13
2022-08-01T17:45:28.167Z,97141.68
2022-08-01T17:48:17.292Z,97143.09
2022-08-01T17:51:06.676Z,97138.27
2022-08-01T17:53:56.970Z,97145.06
2022-08-01T17:56:28.595Z,97145.59
2022-08-01T17:59:34.421Z,97147.48
2022-08-01T18:02:04.366Z,97154.92
2022-08-01T18:04:33.931Z,97154.53
2022-08-01T18:07:22.240Z,97157.91
2022-08-01T18:10:33.718Z,97164.27
2022-08-01T18:13:21.221Z,97163.77
2022-08-01T18:16:26.646Z,97170.09
2022-08-01T18:22:33.585Z,97178.83
2022-08-01T18:25:22.591Z,97181.41
2022-08-01T18:28:35.395Z,97184.31
2022-08-01T18:31:08.721Z,97183.71
2022-08-01T18:33:37.389Z,97189.14
2022-08-01T18:39:49.754Z,97198.00
2022-08-01T18:42:55.699Z,97202.31
2022-08-01T18:46:00.173Z,97208.88
2022-08-01T18:48:48.406Z,97218.37
2022-08-01T18:51:37.897Z,97221.47
2022-08-01T18:54:47.984Z,97222.79
2022-08-01T19:00:59.693Z,97225.80
2022-08-01T19:03:28.748Z,97230.40
2022-08-01T19:06:35.384Z,97231.14
2022-08-01T19:09:23.169Z,97235.92
2022-08-01T19:11:52.601Z,97238.39
2022-08-01T19:15:04.330Z,97241.32
2022-08-01T19:18:10.151Z,97246.07
2022-08-01T19:21:17.267Z,97252.15
2022-08-01T19:24:25.079Z,97254.44
2022-08-01T19:27:13.885Z,97256.02
2022-08-01T19:30:38.828Z,97265.38
2022-08-01T19:33:25.743Z,97271.50
2022-08-01T19:36:34.908Z,97276.73
2022-08-01T19:39:23.032Z,97276.17
2022-08-01T19:42:47.231Z,97281.78
2022-08-01T19:45:56.546Z,97291.79
2022-08-01T19:48:49.956Z,97296.97
2022-08-01T19:51:41.936Z,97300.40
2022-08-01T19:54:13.411Z,97303.33
2022-08-01T19:56:45.257Z,97308.94
2022-08-01T19:59:51.429Z,97307.83
2022-08-01T20:02:40.941Z,97315.46
2022-08-01T20:06:05.403Z,97320.89
2022-08-01T20:09:12.562Z,97321.40
2022-08-01T20:12:20.267Z,97328.22
2022-08-01T20:15:08.055Z,97334.46
2022-08-01T20:20:45.431Z,97332.77
2022-08-01T20:26:45.244Z,97337.51
2022-08-01T20:32:42.854Z,97341.45
2022-08-01T20:38:39.239Z,97344.14
2022-08-01T20:47:38.851Z,97355.01
2022-08-01T20:50:52.967Z,97353.05
2022-08-01T20:53:24.114Z,97354.73
2022-08-01T20:56:34.921Z,97353.20
2022-08-01T20:59:54.629Z,97354.74
2022-08-01T21:03:08.651Z,97359.69
2022-08-01T21:06:24.751Z,97360.67
2022-08-01T21:09:00.319Z,97361.17
2022-08-01T21:12:23.577Z,97359.36
2022-08-01T21:19:19.627Z,97360.50
2022-08-01T21:22:15.744Z,97361.14
2022-08-01T21:25:23.403Z,97360.24
2022-08-01T21:28:32.926Z,97359.55
2022-08-01T21:31:40.536Z,97363.05
2022-08-01T21:34:46.726Z,97367.32
2022-08-01T21:44:29.554Z,97365.98
2022-08-01T21:47:18.945Z,97370.33
2022-08-01T21:49:47.958Z,97370.77
2022-08-01T21:53:01.650Z,97367.33
2022-08-01T21:56:50.680Z,97365.79
2022-08-01T22:00:01.657Z,97365.30
2022-08-01T22:05:51.096Z,97361.11
2022-08-01T22:08:42.684Z,97363.45
2022-08-01T22:11:31.121Z,97363.80
2022-08-01T22:14:21.027Z,97365.23
2022-08-01T22:17:10.319Z,97361.90
2022-08-01T22:26:34.361Z,97362.67
2022-08-01T22:29:41.570Z,97357.55
2022-08-01T22:33:15.679Z,97359.77
2022-08-01T22:36:32.009Z,97356.44
2022-08-01T22:39:19.137Z,97349.69
2022-08-01T22:42:09.155Z,97350.36
2022-08-01T22:45:22.478Z,97347.98
2022-08-01T22:48:18.239Z,97349.09
2022-08-01T22:51:43.015Z,97348.88
2022-08-01T22:54:50.928Z,97348.80
2022-08-01T23:00:47.695Z,97342.06
2022-08-01T23:03:36.502Z,97342.80
2022-08-01T23:06:25.652Z,97351.07
2022-08-01T23:09:15.534Z,97361.05
2022-08-01T23:12:03.489Z,97363.85
2022-08-01T23:14:37.925Z,97367.20
2022-08-01T23:17:29.255Z,97366.31
2022-08-01T23:20:20.419Z,97360.27
2022-08-01T23:23:30.507Z,97358.64
2022-08-01T23:28:49.743Z,97364.40
2022-08-01T23:32:03.323Z,97356.92
2022-08-01T23:41:57.172Z,97370.52
2022-08-01T23:45:23.283Z,97368.17
2022-08-01T23:54:40.296Z,97365.28
2022-08-01T23:57:28.357Z,97368.50
2022-08-01T23:59:57.499Z,97369.80
